sensor_id;sensor_type;location;lat;lon;timestamp;P1;durP1;ratioP1;P2;durP2;ratioP2
29422;SDS011;16399;51.686;8.684;2023-04-01T00:00:30;2.25;;;0.78;;
29422;SDS011;16399;51.686;8.684;2023-04-01T00:03:33;1.67;;;0.53;;
29422;SDS011;16399;51.686;8.684;2023-04-01T00:06:36;1.27;;;0.40;;
29422;SDS011;16399;51.686;8.684;2023-04-01T00:09:38;1.90;;;0.40;;
29422;SDS011;16399;51.686;8.684;2023-04-01T00:12:41;3.60;;;0.70;;
29422;SDS011;16399;51.686;8.684;2023-04-01T00:15:43;0.95;;;0.33;;
29422;SDS011;16399;51.686;8.684;2023-04-01T00:18:46;1.47;;;0.30;;
29422;SDS011;16399;51.686;8.684;2023-04-01T00:21:49;2.27;;;0.50;;
29422;SDS011;16399;51.686;8.684;2023-04-01T00:24:52;2.72;;;0.50;;
29422;SDS011;16399;51.686;8.684;2023-04-01T00:27:55;3.02;;;0.60;;
29422;SDS011;16399;51.686;8.684;2023-04-01T00:30:57;2.37;;;0.45;;
29422;SDS011;16399;51.686;8.684;2023-04-01T00:33:59;2.87;;;0.60;;
29422;SDS011;16399;51.686;8.684;2023-04-01T00:37:03;1.98;;;0.50;;
29422;SDS011;16399;51.686;8.684;2023-04-01T00:40:05;1.82;;;0.68;;
29422;SDS011;16399;51.686;8.684;2023-04-01T00:43:16;2.25;;;0.50;;
29422;SDS011;16399;51.686;8.684;2023-04-01T00:46:20;1.90;;;0.30;;
29422;SDS011;16399;51.686;8.684;2023-04-01T00:49:25;2.05;;;0.50;;
29422;SDS011;16399;51.686;8.684;2023-04-01T00:52:28;2.40;;;0.60;;
29422;SDS011;16399;51.686;8.684;2023-04-01T00:55:32;4.22;;;0.53;;
29422;SDS011;16399;51.686;8.684;2023-04-01T00:58:37;1.90;;;0.60;;
29422;SDS011;16399;51.686;8.684;2023-04-01T01:01:41;3.75;;;0.55;;
29422;SDS011;16399;51.686;8.684;2023-04-01T01:04:43;3.12;;;0.53;;
29422;SDS011;16399;51.686;8.684;2023-04-01T01:07:56;1.85;;;0.50;;
29422;SDS011;16399;51.686;8.684;2023-04-01T01:11:00;1.77;;;0.35;;
29422;SDS011;16399;51.686;8.684;2023-04-01T01:14:08;1.47;;;0.45;;
29422;SDS011;16399;51.686;8.684;2023-04-01T01:17:45;0.88;;;0.40;;
29422;SDS011;16399;51.686;8.684;2023-04-01T01:21:04;2.17;;;0.40;;
29422;SDS011;16399;51.686;8.684;2023-04-01T01:25:25;5.25;;;0.47;;
29422;SDS011;16399;51.686;8.684;2023-04-01T01:27:39;1.80;;;0.40;;
29422;SDS011;16399;51.686;8.684;2023-04-01T01:30:56;3.55;;;1.02;;
29422;SDS011;16399;51.686;8.684;2023-04-01T01:37:27;1.12;;;0.50;;
29422;SDS011;16399;51.686;8.684;2023-04-01T01:40:33;0.98;;;0.40;;
29422;SDS011;16399;51.686;8.684;2023-04-01T01:43:42;1.60;;;0.30;;
29422;SDS011;16399;51.686;8.684;2023-04-01T01:46:45;1.65;;;0.35;;
29422;SDS011;16399;51.686;8.684;2023-04-01T01:49:50;5.62;;;0.78;;
29422;SDS011;16399;51.686;8.684;2023-04-01T01:53:05;2.17;;;0.55;;
29422;SDS011;16399;51.686;8.684;2023-04-01T01:56:05;1.87;;;0.30;;
29422;SDS011;16399;51.686;8.684;2023-04-01T01:59:08;1.02;;;0.50;;
29422;SDS011;16399;51.686;8.684;2023-04-01T02:02:13;3.45;;;0.50;;
29422;SDS011;16399;51.686;8.684;2023-04-01T02:05:22;0.95;;;0.40;;
29422;SDS011;16399;51.686;8.684;2023-04-01T02:08:28;1.32;;;0.35;;
29422;SDS011;16399;51.686;8.684;2023-04-01T02:15:01;1.37;;;0.30;;
29422;SDS011;16399;51.686;8.684;2023-04-01T02:18:08;0.33;;;0.25;;
29422;SDS011;16399;51.686;8.684;2023-04-01T02:21:12;1.62;;;0.35;;
29422;SDS011;16399;51.686;8.684;2023-04-01T02:24:16;1.27;;;0.50;;
29422;SDS011;16399;51.686;8.684;2023-04-01T02:27:22;0.75;;;0.30;;
29422;SDS011;16399;51.686;8.684;2023-04-01T02:30:26;2.10;;;0.37;;
29422;SDS011;16399;51.686;8.684;2023-04-01T02:33:30;0.75;;;0.33;;
29422;SDS011;16399;51.686;8.684;2023-04-01T02:36:34;0.70;;;0.30;;
29422;SDS011;16399;51.686;8.684;2023-04-01T02:39:37;1.57;;;0.50;;
29422;SDS011;16399;51.686;8.684;2023-04-01T02:42:39;2.25;;;0.60;;
29422;SDS011;16399;51.686;8.684;2023-04-01T02:45:42;2.58;;;0.70;;
29422;SDS011;16399;51.686;8.684;2023-04-01T02:48:45;1.00;;;0.30;;
29422;SDS011;16399;51.686;8.684;2023-04-01T02:51:47;0.28;;;0.20;;
29422;SDS011;16399;51.686;8.684;2023-04-01T02:54:49;1.07;;;0.47;;
29422;SDS011;16399;51.686;8.684;2023-04-01T02:57:52;1.30;;;0.30;;
29422;SDS011;16399;51.686;8.684;2023-04-01T03:00:54;0.50;;;0.20;;
29422;SDS011;16399;51.686;8.684;2023-04-01T03:03:56;1.60;;;0.57;;
29422;SDS011;16399;51.686;8.684;2023-04-01T03:06:58;0.70;;;0.35;;
29422;SDS011;16399;51.686;8.684;2023-04-01T03:10:01;0.35;;;0.25;;
29422;SDS011;16399;51.686;8.684;2023-04-01T03:13:03;0.70;;;0.28;;
29422;SDS011;16399;51.686;8.684;2023-04-01T03:16:06;1.12;;;0.30;;
29422;SDS011;16399;51.686;8.684;2023-04-01T03:19:09;0.70;;;0.20;;
29422;SDS011;16399;51.686;8.684;2023-04-01T03:22:11;0.37;;;0.20;;
29422;SDS011;16399;51.686;8.684;2023-04-01T03:25:13;2.22;;;0.20;;
29422;SDS011;16399;51.686;8.684;2023-04-01T03:28:15;0.68;;;0.30;;
29422;SDS011;16399;51.686;8.684;2023-04-01T03:31:18;0.62;;;0.23;;
29422;SDS011;16399;51.686;8.684;2023-04-01T03:34:20;0.30;;;0.20;;
29422;SDS011;16399;51.686;8.684;2023-04-01T03:37:23;1.12;;;0.30;;
29422;SDS011;16399;51.686;8.684;2023-04-01T03:40:25;1.35;;;0.35;;
29422;SDS011;16399;51.686;8.684;2023-04-01T03:43:28;0.88;;;0.30;;
29422;SDS011;16399;51.686;8.684;2023-04-01T03:46:30;0.28;;;0.20;;
29422;SDS011;16399;51.686;8.684;2023-04-01T03:49:32;0.50;;;0.30;;
29422;SDS011;16399;51.686;8.684;2023-04-01T03:52:35;1.20;;;0.30;;
29422;SDS011;16399;51.686;8.684;2023-04-01T03:55:37;1.47;;;0.20;;
29422;SDS011;16399;51.686;8.684;2023-04-01T03:58:40;1.10;;;0.30;;
29422;SDS011;16399;51.686;8.684;2023-04-01T04:01:42;0.37;;;0.20;;
29422;SDS011;16399;51.686;8.684;2023-04-01T04:04:45;1.25;;;0.30;;
29422;SDS011;16399;51.686;8.684;2023-04-01T04:07:47;1.87;;;0.55;;
29422;SDS011;16399;51.686;8.684;2023-04-01T04:10:59;1.42;;;0.33;;
29422;SDS011;16399;51.686;8.684;2023-04-01T04:13:56;1.00;;;0.30;;
29422;SDS011;16399;51.686;8.684;2023-04-01T04:16:59;0.82;;;0.28;;
29422;SDS011;16399;51.686;8.684;2023-04-01T04:20:01;1.55;;;0.25;;
29422;SDS011;16399;51.686;8.684;2023-04-01T04:23:04;1.07;;;0.30;;
29422;SDS011;16399;51.686;8.684;2023-04-01T04:26:07;0.40;;;0.20;;
29422;SDS011;16399;51.686;8.684;2023-04-01T04:29:11;0.20;;;0.20;;
29422;SDS011;16399;51.686;8.684;2023-04-01T04:32:13;0.35;;;0.20;;
29422;SDS011;16399;51.686;8.684;2023-04-01T04:35:15;1.65;;;0.30;;
29422;SDS011;16399;51.686;8.684;2023-04-01T04:38:17;0.30;;;0.20;;
29422;SDS011;16399;51.686;8.684;2023-04-01T04:41:22;0.30;;;0.20;;
29422;SDS011;16399;51.686;8.684;2023-04-01T04:44:24;0.20;;;0.20;;
29422;SDS011;16399;51.686;8.684;2023-04-01T04:47:26;1.62;;;0.20;;
29422;SDS011;16399;51.686;8.684;2023-04-01T04:50:29;1.25;;;0.40;;
29422;SDS011;16399;51.686;8.684;2023-04-01T04:53:31;0.23;;;0.20;;
29422;SDS011;16399;51.686;8.684;2023-04-01T04:56:33;0.55;;;0.20;;
29422;SDS011;16399;51.686;8.684;2023-04-01T04:59:36;0.30;;;0.20;;
29422;SDS011;16399;51.686;8.684;2023-04-01T05:02:38;1.40;;;0.25;;
29422;SDS011;16399;51.686;8.684;2023-04-01T05:05:47;1.00;;;0.42;;
29422;SDS011;16399;51.686;8.684;2023-04-01T05:08:52;0.50;;;0.20;;
29422;SDS011;16399;51.686;8.684;2023-04-01T05:11:54;2.05;;;0.23;;
29422;SDS011;16399;51.686;8.684;2023-04-01T05:14:56;1.55;;;0.25;;
29422;SDS011;16399;51.686;8.684;2023-04-01T05:17:58;1.25;;;0.30;;
29422;SDS011;16399;51.686;8.684;2023-04-01T05:21:01;0.70;;;0.20;;
29422;SDS011;16399;51.686;8.684;2023-04-01T05:24:03;1.22;;;0.33;;
29422;SDS011;16399;51.686;8.684;2023-04-01T05:27:09;2.80;;;0.30;;
29422;SDS011;16399;51.686;8.684;2023-04-01T05:30:11;0.47;;;0.30;;
29422;SDS011;16399;51.686;8.684;2023-04-01T05:33:14;0.72;;;0.25;;
29422;SDS011;16399;51.686;8.684;2023-04-01T05:36:16;0.75;;;0.30;;
29422;SDS011;16399;51.686;8.684;2023-04-01T05:39:18;2.85;;;0.57;;
29422;SDS011;16399;51.686;8.684;2023-04-01T05:42:20;1.95;;;0.20;;
29422;SDS011;16399;51.686;8.684;2023-04-01T05:45:23;0.37;;;0.13;;
29422;SDS011;16399;51.686;8.684;2023-04-01T05:48:25;0.57;;;0.20;;
29422;SDS011;16399;51.686;8.684;2023-04-01T05:51:28;0.60;;;0.10;;
29422;SDS011;16399;51.686;8.684;2023-04-01T05:54:30;1.10;;;0.30;;
29422;SDS011;16399;51.686;8.684;2023-04-01T05:57:35;0.23;;;0.10;;
29422;SDS011;16399;51.686;8.684;2023-04-01T06:00:37;0.20;;;0.10;;
29422;SDS011;16399;51.686;8.684;2023-04-01T06:03:39;0.35;;;0.20;;
29422;SDS011;16399;51.686;8.684;2023-04-01T06:06:42;0.85;;;0.20;;
29422;SDS011;16399;51.686;8.684;2023-04-01T06:09:45;1.17;;;0.20;;
29422;SDS011;16399;51.686;8.684;2023-04-01T06:12:51;0.13;;;0.10;;
29422;SDS011;16399;51.686;8.684;2023-04-01T06:16:11;0.40;;;0.10;;
29422;SDS011;16399;51.686;8.684;2023-04-01T06:19:27;0.42;;;0.20;;
29422;SDS011;16399;51.686;8.684;2023-04-01T06:22:54;0.50;;;0.20;;
29422;SDS011;16399;51.686;8.684;2023-04-01T06:40:01;1.12;;;0.20;;
29422;SDS011;16399;51.686;8.684;2023-04-01T06:43:21;0.70;;;0.17;;
29422;SDS011;16399;51.686;8.684;2023-04-01T06:49:49;0.10;;;0.10;;
29422;SDS011;16399;51.686;8.684;2023-04-01T06:56:16;0.10;;;0.10;;
29422;SDS011;16399;51.686;8.684;2023-04-01T06:59:21;0.30;;;0.10;;
29422;SDS011;16399;51.686;8.684;2023-04-01T07:02:29;0.93;;;0.20;;
29422;SDS011;16399;51.686;8.684;2023-04-01T07:05:45;0.30;;;0.20;;
29422;SDS011;16399;51.686;8.684;2023-04-01T07:08:48;0.13;;;0.10;;
29422;SDS011;16399;51.686;8.684;2023-04-01T07:11:53;0.57;;;0.30;;
29422;SDS011;16399;51.686;8.684;2023-04-01T07:14:58;1.25;;;0.30;;
29422;SDS011;16399;51.686;8.684;2023-04-01T07:18:16;0.70;;;0.33;;
29422;SDS011;16399;51.686;8.684;2023-04-01T07:21:25;0.75;;;0.60;;
29422;SDS011;16399;51.686;8.684;2023-04-01T07:24:35;0.65;;;0.30;;
29422;SDS011;16399;51.686;8.684;2023-04-01T07:27:40;0.72;;;0.30;;
29422;SDS011;16399;51.686;8.684;2023-04-01T07:30:52;1.67;;;0.25;;
29422;SDS011;16399;51.686;8.684;2023-04-01T07:34:10;0.93;;;0.28;;
29422;SDS011;16399;51.686;8.684;2023-04-01T07:37:28;2.62;;;0.68;;
29422;SDS011;16399;51.686;8.684;2023-04-01T07:40:39;1.65;;;0.30;;
29422;SDS011;16399;51.686;8.684;2023-04-01T07:43:50;0.78;;;0.33;;
29422;SDS011;16399;51.686;8.684;2023-04-01T07:53:45;1.85;;;0.40;;
29422;SDS011;16399;51.686;8.684;2023-04-01T07:57:11;0.17;;;0.10;;
29422;SDS011;16399;51.686;8.684;2023-04-01T08:00:30;0.65;;;0.20;;
29422;SDS011;16399;51.686;8.684;2023-04-01T08:07:15;0.60;;;0.25;;
29422;SDS011;16399;51.686;8.684;2023-04-01T08:10:31;0.20;;;0.20;;
29422;SDS011;16399;51.686;8.684;2023-04-01T08:13:53;0.45;;;0.20;;
29422;SDS011;16399;51.686;8.684;2023-04-01T08:20:45;0.57;;;0.30;;
29422;SDS011;16399;51.686;8.684;2023-04-01T08:24:07;0.10;;;0.10;;
29422;SDS011;16399;51.686;8.684;2023-04-01T08:27:03;0.20;;;0.20;;
29422;SDS011;16399;51.686;8.684;2023-04-01T08:30:20;0.75;;;0.37;;
29422;SDS011;16399;51.686;8.684;2023-04-01T08:33:28;0.20;;;0.20;;
29422;SDS011;16399;51.686;8.684;2023-04-01T08:36:36;0.95;;;0.20;;
29422;SDS011;16399;51.686;8.684;2023-04-01T08:39:44;1.07;;;0.37;;
29422;SDS011;16399;51.686;8.684;2023-04-01T08:42:57;1.40;;;0.30;;
29422;SDS011;16399;51.686;8.684;2023-04-01T08:46:08;0.20;;;0.20;;
29422;SDS011;16399;51.686;8.684;2023-04-01T08:52:37;0.20;;;0.10;;
29422;SDS011;16399;51.686;8.684;2023-04-01T08:55:51;0.98;;;0.30;;
29422;SDS011;16399;51.686;8.684;2023-04-01T08:59:13;0.20;;;0.20;;
29422;SDS011;16399;51.686;8.684;2023-04-01T09:09:20;0.28;;;0.20;;
29422;SDS011;16399;51.686;8.684;2023-04-01T09:19:18;0.65;;;0.30;;
29422;SDS011;16399;51.686;8.684;2023-04-01T09:25:53;0.30;;;0.20;;
29422;SDS011;16399;51.686;8.684;2023-04-01T09:28:42;0.25;;;0.25;;
29422;SDS011;16399;51.686;8.684;2023-04-01T09:31:49;0.78;;;0.30;;
29422;SDS011;16399;51.686;8.684;2023-04-01T09:35:14;1.07;;;0.23;;
29422;SDS011;16399;51.686;8.684;2023-04-01T09:38:28;1.72;;;0.30;;
29422;SDS011;16399;51.686;8.684;2023-04-01T09:48:09;0.45;;;0.20;;
29422;SDS011;16399;51.686;8.684;2023-04-01T09:58:02;0.25;;;0.20;;
29422;SDS011;16399;51.686;8.684;2023-04-01T10:08:10;0.60;;;0.30;;
29422;SDS011;16399;51.686;8.684;2023-04-01T10:28:13;0.75;;;0.30;;
29422;SDS011;16399;51.686;8.684;2023-04-01T10:38:08;0.95;;;0.30;;
29422;SDS011;16399;51.686;8.684;2023-04-01T10:44:23;1.77;;;0.35;;
29422;SDS011;16399;51.686;8.684;2023-04-01T10:47:27;0.70;;;0.30;;
29422;SDS011;16399;51.686;8.684;2023-04-01T10:54:16;0.40;;;0.30;;
29422;SDS011;16399;51.686;8.684;2023-04-01T10:57:32;0.40;;;0.30;;
29422;SDS011;16399;51.686;8.684;2023-04-01T11:04:26;2.80;;;0.80;;
29422;SDS011;16399;51.686;8.684;2023-04-01T11:14:35;1.47;;;0.40;;
29422;SDS011;16399;51.686;8.684;2023-04-01T11:17:59;1.32;;;0.50;;
29422;SDS011;16399;51.686;8.684;2023-04-01T11:21:15;0.85;;;0.55;;
29422;SDS011;16399;51.686;8.684;2023-04-01T11:24:25;1.60;;;0.90;;
29422;SDS011;16399;51.686;8.684;2023-04-01T11:27:59;1.93;;;0.87;;
29422;SDS011;16399;51.686;8.684;2023-04-01T11:34:53;2.15;;;0.45;;
29422;SDS011;16399;51.686;8.684;2023-04-01T11:38:10;0.93;;;0.50;;
29422;SDS011;16399;51.686;8.684;2023-04-01T11:48:34;0.35;;;0.30;;
29422;SDS011;16399;51.686;8.684;2023-04-01T11:51:50;1.30;;;0.33;;
29422;SDS011;16399;51.686;8.684;2023-04-01T11:58:26;1.72;;;0.80;;
29422;SDS011;16399;51.686;8.684;2023-04-01T12:08:18;1.22;;;0.40;;
29422;SDS011;16399;51.686;8.684;2023-04-01T12:11:38;2.75;;;1.30;;
29422;SDS011;16399;51.686;8.684;2023-04-01T12:18:40;4.00;;;0.40;;
29422;SDS011;16399;51.686;8.684;2023-04-01T12:21:56;1.40;;;0.60;;
29422;SDS011;16399;51.686;8.684;2023-04-01T12:25:27;0.68;;;0.50;;
29422;SDS011;16399;51.686;8.684;2023-04-01T12:29:37;1.55;;;0.70;;
29422;SDS011;16399;51.686;8.684;2023-04-01T12:35:23;2.50;;;0.60;;
29422;SDS011;16399;51.686;8.684;2023-04-01T12:42:12;1.07;;;0.60;;
29422;SDS011;16399;51.686;8.684;2023-04-01T12:45:28;0.88;;;0.50;;
29422;SDS011;16399;51.686;8.684;2023-04-01T12:48:42;2.58;;;0.60;;
29422;SDS011;16399;51.686;8.684;2023-04-01T12:58:42;1.65;;;1.10;;
29422;SDS011;16399;51.686;8.684;2023-04-01T13:02:06;2.95;;;2.17;;
29422;SDS011;16399;51.686;8.684;2023-04-01T13:12:44;0.95;;;0.50;;
29422;SDS011;16399;51.686;8.684;2023-04-01T13:22:16;2.40;;;0.53;;
29422;SDS011;16399;51.686;8.684;2023-04-01T13:25:25;0.93;;;0.40;;
29422;SDS011;16399;51.686;8.684;2023-04-01T13:28:33;0.80;;;0.50;;
29422;SDS011;16399;51.686;8.684;2023-04-01T13:31:38;1.12;;;0.50;;
29422;SDS011;16399;51.686;8.684;2023-04-01T13:34:59;0.62;;;0.40;;
29422;SDS011;16399;51.686;8.684;2023-04-01T13:38:17;0.93;;;0.50;;
29422;SDS011;16399;51.686;8.684;2023-04-01T13:44:47;0.62;;;0.50;;
29422;SDS011;16399;51.686;8.684;2023-04-01T13:51:28;1.10;;;0.55;;
29422;SDS011;16399;51.686;8.684;2023-04-01T13:54:56;0.78;;;0.60;;
29422;SDS011;16399;51.686;8.684;2023-04-01T13:58:30;0.68;;;0.50;;
29422;SDS011;16399;51.686;8.684;2023-04-01T14:08:23;1.35;;;0.70;;
29422;SDS011;16399;51.686;8.684;2023-04-01T14:11:45;1.70;;;0.90;;
29422;SDS011;16399;51.686;8.684;2023-04-01T14:15:09;1.27;;;0.70;;
29422;SDS011;16399;51.686;8.684;2023-04-01T14:21:43;1.32;;;0.70;;
29422;SDS011;16399;51.686;8.684;2023-04-01T14:25:00;0.60;;;0.60;;
29422;SDS011;16399;51.686;8.684;2023-04-01T14:31:44;1.55;;;0.70;;
29422;SDS011;16399;51.686;8.684;2023-04-01T14:41:41;1.55;;;0.80;;
29422;SDS011;16399;51.686;8.684;2023-04-01T14:44:54;1.67;;;1.00;;
29422;SDS011;16399;51.686;8.684;2023-04-01T14:48:25;3.62;;;1.00;;
29422;SDS011;16399;51.686;8.684;2023-04-01T14:51:29;2.47;;;0.82;;
29422;SDS011;16399;51.686;8.684;2023-04-01T14:54:38;2.83;;;1.10;;
29422;SDS011;16399;51.686;8.684;2023-04-01T14:57:43;3.62;;;0.90;;
29422;SDS011;16399;51.686;8.684;2023-04-01T15:00:54;4.95;;;1.00;;
29422;SDS011;16399;51.686;8.684;2023-04-01T15:11:22;2.25;;;0.90;;
29422;SDS011;16399;51.686;8.684;2023-04-01T15:17:40;2.05;;;1.00;;
29422;SDS011;16399;51.686;8.684;2023-04-01T15:20:57;2.33;;;0.95;;
29422;SDS011;16399;51.686;8.684;2023-04-01T15:24:35;2.65;;;1.27;;
29422;SDS011;16399;51.686;8.684;2023-04-01T15:27:51;1.45;;;0.80;;
29422;SDS011;16399;51.686;8.684;2023-04-01T15:34:18;0.98;;;0.72;;
29422;SDS011;16399;51.686;8.684;2023-04-01T15:37:37;1.67;;;0.90;;
29422;SDS011;16399;51.686;8.684;2023-04-01T15:40:43;2.40;;;0.90;;
29422;SDS011;16399;51.686;8.684;2023-04-01T15:43:59;2.47;;;1.55;;
29422;SDS011;16399;51.686;8.684;2023-04-01T15:47:03;1.37;;;0.80;;
29422;SDS011;16399;51.686;8.684;2023-04-01T15:57:05;2.02;;;1.30;;
29422;SDS011;16399;51.686;8.684;2023-04-01T16:03:36;4.78;;;1.70;;
29422;SDS011;16399;51.686;8.684;2023-04-01T16:06:51;3.58;;;1.92;;
29422;SDS011;16399;51.686;8.684;2023-04-01T16:10:24;3.37;;;2.10;;
29422;SDS011;16399;51.686;8.684;2023-04-01T16:13:48;8.03;;;4.17;;
29422;SDS011;16399;51.686;8.684;2023-04-01T16:20:43;3.72;;;1.80;;
29422;SDS011;16399;51.686;8.684;2023-04-01T16:23:49;3.08;;;1.52;;
29422;SDS011;16399;51.686;8.684;2023-04-01T16:30:37;3.05;;;1.70;;
29422;SDS011;16399;51.686;8.684;2023-04-01T16:33:52;2.00;;;1.10;;
29422;SDS011;16399;51.686;8.684;2023-04-01T16:37:20;2.55;;;1.30;;
29422;SDS011;16399;51.686;8.684;2023-04-01T16:40:11;2.80;;;1.37;;
29422;SDS011;16399;51.686;8.684;2023-04-01T16:46:55;4.17;;;1.60;;
29422;SDS011;16399;51.686;8.684;2023-04-01T16:50:06;2.72;;;1.35;;
29422;SDS011;16399;51.686;8.684;2023-04-01T16:53:17;3.05;;;1.77;;
29422;SDS011;16399;51.686;8.684;2023-04-01T16:56:24;2.90;;;1.60;;
29422;SDS011;16399;51.686;8.684;2023-04-01T16:59:37;2.87;;;1.65;;
29422;SDS011;16399;51.686;8.684;2023-04-01T17:02:49;3.87;;;2.00;;
29422;SDS011;16399;51.686;8.684;2023-04-01T17:12:19;5.05;;;2.47;;
29422;SDS011;16399;51.686;8.684;2023-04-01T17:18:46;4.47;;;1.62;;
29422;SDS011;16399;51.686;8.684;2023-04-01T17:21:56;4.58;;;1.82;;
29422;SDS011;16399;51.686;8.684;2023-04-01T17:25:02;3.47;;;2.10;;
29422;SDS011;16399;51.686;8.684;2023-04-01T17:38:44;4.70;;;2.60;;
29422;SDS011;16399;51.686;8.684;2023-04-01T17:45:01;5.67;;;3.10;;
29422;SDS011;16399;51.686;8.684;2023-04-01T17:58:34;9.08;;;3.05;;
29422;SDS011;16399;51.686;8.684;2023-04-01T18:01:40;6.80;;;3.70;;
29422;SDS011;16399;51.686;8.684;2023-04-01T18:04:47;7.60;;;3.83;;
29422;SDS011;16399;51.686;8.684;2023-04-01T18:08:11;7.53;;;4.62;;
29422;SDS011;16399;51.686;8.684;2023-04-01T18:18:10;8.18;;;4.47;;
29422;SDS011;16399;51.686;8.684;2023-04-01T18:21:19;7.15;;;3.95;;
29422;SDS011;16399;51.686;8.684;2023-04-01T18:24:29;8.23;;;4.75;;
29422;SDS011;16399;51.686;8.684;2023-04-01T18:27:37;10.30;;;5.70;;
29422;SDS011;16399;51.686;8.684;2023-04-01T18:30:42;10.45;;;5.47;;
29422;SDS011;16399;51.686;8.684;2023-04-01T18:40:38;24.75;;;12.13;;
29422;SDS011;16399;51.686;8.684;2023-04-01T18:44:07;15.63;;;9.00;;
29422;SDS011;16399;51.686;8.684;2023-04-01T18:50:43;21.33;;;12.15;;
29422;SDS011;16399;51.686;8.684;2023-04-01T18:53:59;25.32;;;12.90;;
29422;SDS011;16399;51.686;8.684;2023-04-01T18:57:08;11.73;;;7.17;;
29422;SDS011;16399;51.686;8.684;2023-04-01T19:00:25;8.97;;;5.53;;
29422;SDS011;16399;51.686;8.684;2023-04-01T19:03:44;5.15;;;3.58;;
29422;SDS011;16399;51.686;8.684;2023-04-01T19:06:54;8.05;;;4.25;;
29422;SDS011;16399;51.686;8.684;2023-04-01T19:10:07;7.50;;;4.10;;
29422;SDS011;16399;51.686;8.684;2023-04-01T19:13:25;5.92;;;3.75;;
29422;SDS011;16399;51.686;8.684;2023-04-01T19:16:43;7.35;;;4.00;;
29422;SDS011;16399;51.686;8.684;2023-04-01T19:29:40;5.87;;;3.58;;
29422;SDS011;16399;51.686;8.684;2023-04-01T19:33:04;6.15;;;4.05;;
29422;SDS011;16399;51.686;8.684;2023-04-01T19:36:24;7.35;;;4.50;;
29422;SDS011;16399;51.686;8.684;2023-04-01T19:52:43;3.00;;;1.75;;
29422;SDS011;16399;51.686;8.684;2023-04-01T19:55:44;3.98;;;1.75;;
29422;SDS011;16399;51.686;8.684;2023-04-01T20:02:24;3.08;;;1.75;;
29422;SDS011;16399;51.686;8.684;2023-04-01T20:08:40;2.70;;;1.80;;
29422;SDS011;16399;51.686;8.684;2023-04-01T20:15:30;3.50;;;2.00;;
29422;SDS011;16399;51.686;8.684;2023-04-01T20:18:26;3.27;;;1.98;;
29422;SDS011;16399;51.686;8.684;2023-04-01T20:21:44;4.22;;;2.30;;
29422;SDS011;16399;51.686;8.684;2023-04-01T20:24:48;4.12;;;1.45;;
29422;SDS011;16399;51.686;8.684;2023-04-01T20:27:54;2.87;;;1.32;;
29422;SDS011;16399;51.686;8.684;2023-04-01T20:31:23;2.45;;;1.50;;
29422;SDS011;16399;51.686;8.684;2023-04-01T20:34:46;2.42;;;1.27;;
29422;SDS011;16399;51.686;8.684;2023-04-01T20:41:28;13.80;;;5.90;;
29422;SDS011;16399;51.686;8.684;2023-04-01T20:44:46;32.17;;;12.85;;
29422;SDS011;16399;51.686;8.684;2023-04-01T20:51:22;22.73;;;9.15;;
29422;SDS011;16399;51.686;8.684;2023-04-01T21:01:35;5.40;;;2.75;;
29422;SDS011;16399;51.686;8.684;2023-04-01T21:08:14;2.83;;;1.80;;
29422;SDS011;16399;51.686;8.684;2023-04-01T21:11:37;2.65;;;1.62;;
29422;SDS011;16399;51.686;8.684;2023-04-01T21:21:47;2.62;;;1.30;;
29422;SDS011;16399;51.686;8.684;2023-04-01T21:25:00;2.42;;;1.55;;
29422;SDS011;16399;51.686;8.684;2023-04-01T21:28:04;1.60;;;1.20;;
29422;SDS011;16399;51.686;8.684;2023-04-01T21:35:06;3.42;;;1.50;;
29422;SDS011;16399;51.686;8.684;2023-04-01T21:38:14;2.58;;;1.10;;
29422;SDS011;16399;51.686;8.684;2023-04-01T21:41:24;2.67;;;1.37;;
29422;SDS011;16399;51.686;8.684;2023-04-01T21:44:43;3.95;;;1.40;;
29422;SDS011;16399;51.686;8.684;2023-04-01T21:51:33;2.15;;;1.12;;
29422;SDS011;16399;51.686;8.684;2023-04-01T22:08:40;1.98;;;0.95;;
29422;SDS011;16399;51.686;8.684;2023-04-01T22:11:47;2.12;;;1.17;;
29422;SDS011;16399;51.686;8.684;2023-04-01T22:15:10;1.80;;;1.20;;
29422;SDS011;16399;51.686;8.684;2023-04-01T22:18:31;1.30;;;0.98;;
29422;SDS011;16399;51.686;8.684;2023-04-01T22:21:48;1.52;;;1.00;;
29422;SDS011;16399;51.686;8.684;2023-04-01T22:24:56;31.25;;;11.35;;
29422;SDS011;16399;51.686;8.684;2023-04-01T22:28:00;6.30;;;3.08;;
29422;SDS011;16399;51.686;8.684;2023-04-01T22:31:06;7.37;;;3.60;;
29422;SDS011;16399;51.686;8.684;2023-04-01T22:34:14;2.40;;;1.55;;
29422;SDS011;16399;51.686;8.684;2023-04-01T22:37:32;3.70;;;2.20;;
29422;SDS011;16399;51.686;8.684;2023-04-01T22:40:40;3.58;;;2.08;;
29422;SDS011;16399;51.686;8.684;2023-04-01T22:43:43;3.27;;;2.17;;
29422;SDS011;16399;51.686;8.684;2023-04-01T22:46:56;3.35;;;1.85;;
29422;SDS011;16399;51.686;8.684;2023-04-01T22:50:05;5.85;;;1.95;;
29422;SDS011;16399;51.686;8.684;2023-04-01T22:56:37;3.92;;;2.50;;
29422;SDS011;16399;51.686;8.684;2023-04-01T22:59:40;3.17;;;2.02;;
29422;SDS011;16399;51.686;8.684;2023-04-01T23:06:16;3.62;;;2.12;;
29422;SDS011;16399;51.686;8.684;2023-04-01T23:09:34;3.22;;;2.30;;
29422;SDS011;16399;51.686;8.684;2023-04-01T23:12:38;3.67;;;2.00;;
29422;SDS011;16399;51.686;8.684;2023-04-01T23:15:42;4.35;;;2.60;;
29422;SDS011;16399;51.686;8.684;2023-04-01T23:18:50;3.70;;;2.25;;
29422;SDS011;16399;51.686;8.684;2023-04-01T23:22:02;3.47;;;2.15;;
29422;SDS011;16399;51.686;8.684;2023-04-01T23:29:14;3.87;;;2.27;;
29422;SDS011;16399;51.686;8.684;2023-04-01T23:31:47;3.50;;;2.40;;
29422;SDS011;16399;51.686;8.684;2023-04-01T23:34:52;4.60;;;2.70;;
29422;SDS011;16399;51.686;8.684;2023-04-01T23:37:57;5.67;;;2.90;;
29422;SDS011;16399;51.686;8.684;2023-04-01T23:41:00;4.70;;;3.08;;
29422;SDS011;16399;51.686;8.684;2023-04-01T23:44:05;5.78;;;3.70;;
29422;SDS011;16399;51.686;8.684;2023-04-01T23:47:12;5.80;;;3.60;;
29422;SDS011;16399;51.686;8.684;2023-04-01T23:50:20;7.22;;;3.50;;
29422;SDS011;16399;51.686;8.684;2023-04-01T23:53:32;7.03;;;3.67;;
29422;SDS011;16399;51.686;8.684;2023-04-01T23:56:46;4.92;;;3.25;;
